Time;durP1;ratioP1;P1;durP2;ratioP2;P2;SDS_P1;SDS_P2;PMS_P1;PMS_P2;Temp;Humidity;BMP_temperature;BMP_pressure;BME280_temperature;BME280_humidity;BME280_pressure;Samples;Min_cycle;Max_cycle;Signal;HPM_P1;HPM_P2
2021/08/12 00:01:20;;;;;;;14.90;6.28;;;;;;;24.56;40.30;94110.34;4974005;28;20038;-78
2021/08/12 00:03:46;;;;;;;13.93;6.60;;;;;;;24.46;39.87;94118.53;4977833;28;20088;-77
2021/08/12 00:06:12;;;;;;;9.48;5.97;;;;;;;24.39;40.43;94119.38;4977025;28;20528;-76
2021/08/12 00:08:38;;;;;;;7.07;5.38;;;;;;;24.41;39.97;94127.88;4972786;28;20042;-78
2021/08/12 00:11:04;;;;;;;10.43;6.32;;;;;;;24.54;39.55;94144.56;4974681;28;20481;-77
2021/08/12 00:13:29;;;;;;;8.35;6.40;;;;;;;24.50;39.63;94141.84;4974802;28;20049;-78
2021/08/12 00:15:54;;;;;;;7.13;6.20;;;;;;;24.36;40.01;94147.31;4975755;28;20133;-76
2021/08/12 00:18:20;;;;;;;10.10;6.85;;;;;;;24.35;40.28;94134.88;4973671;28;20184;-77
2021/08/12 00:20:45;;;;;;;8.55;6.07;;;;;;;24.32;40.35;94139.19;4980141;28;20403;-77
2021/08/12 00:23:11;;;;;;;10.20;6.35;;;;;;;24.27;39.91;94117.06;4974196;28;20089;-77
2021/08/12 00:25:36;;;;;;;8.98;6.45;;;;;;;24.33;40.14;94121.72;4974770;28;20061;-77
2021/08/12 00:28:01;;;;;;;7.63;6.22;;;;;;;24.40;40.49;94131.75;4972806;28;20134;-77
2021/08/12 00:30:27;;;;;;;7.75;5.75;;;;;;;24.27;39.77;94108.91;4973684;28;20465;-78
2021/08/12 00:32:52;;;;;;;6.78;5.90;;;;;;;24.20;39.98;94095.34;4971672;28;20038;-77
2021/08/12 00:35:18;;;;;;;8.48;6.20;;;;;;;24.24;39.77;94112.41;4973225;28;20026;-77
2021/08/12 00:37:44;;;;;;;7.30;5.78;;;;;;;23.97;40.15;94080.22;4975337;28;20381;-78
2021/08/12 00:40:11;;;;;;;7.97;6.32;;;;;;;24.07;40.15;94102.31;4976979;28;20026;-77
2021/08/12 00:42:36;;;;;;;9.68;6.45;;;;;;;24.15;41.11;94109.34;4976463;28;20042;-77
2021/08/12 00:45:02;;;;;;;7.80;6.22;;;;;;;24.05;40.61;94118.25;4990197;28;20518;-77
2021/08/12 00:47:28;;;;;;;7.55;5.80;;;;;;;23.95;41.23;94112.44;4976401;28;20029;-77
2021/08/12 00:49:53;;;;;;;10.38;5.78;;;;;;;23.58;40.95;94093.09;4974494;28;20030;-78
2021/08/12 00:52:20;;;;;;;10.55;6.47;;;;;;;23.41;41.71;94100.06;4977447;28;20022;-77
2021/08/12 00:54:46;;;;;;;8.13;6.40;;;;;;;23.46;42.36;94102.38;4976726;28;20041;-77
2021/08/12 00:57:12;;;;;;;7.88;6.95;;;;;;;23.42;42.90;94115.16;4978454;28;20630;-78
2021/08/12 00:59:39;;;;;;;6.93;6.32;;;;;;;23.50;42.88;94121.41;4977821;28;20058;-77
2021/08/12 01:02:09;;;;;;;10.15;7.55;;;;;;;23.52;42.65;94127.97;4975915;28;20166;-76
2021/08/12 01:04:36;;;;;;;7.63;6.28;;;;;;;23.37;43.02;94117.47;4979831;28;20030;-77
2021/08/12 01:07:09;;;;;;;7.72;6.13;;;;;;;23.36;43.04;94113.22;4979848;28;20060;-77
2021/08/12 01:09:49;;;;;;;9.05;6.63;;;;;;;23.17;43.37;94120.56;4983027;28;20446;-77
2021/08/12 01:12:34;;;;;;;8.18;6.85;;;;;;;23.17;43.21;94123.25;4979397;28;20117;-77
2021/08/12 01:15:08;;;;;;;9.65;6.85;;;;;;;23.07;44.09;94131.41;4992399;28;20042;-78
2021/08/12 01:18:03;;;;;;;;;;;;;;;23.04;43.87;94132.16;4977499;28;20042;-77
2021/08/12 01:20:28;;;;;;;8.55;7.30;;;;;;;23.01;44.02;94135.66;4952466;28;20463;-77
2021/08/12 01:22:57;;;;;;;8.55;7.10;;;;;;;22.92;44.29;94121.69;4961280;28;20030;-77
2021/08/12 01:25:27;;;;;;;7.53;6.70;;;;;;;22.92;44.56;94122.47;4978020;28;20023;-77
2021/08/12 01:27:59;;;;;;;11.13;7.45;;;;;;;22.91;44.33;94112.78;4978502;28;20282;-77
2021/08/12 01:30:30;;;;;;;8.52;6.85;;;;;;;22.99;44.64;94122.47;4976899;28;20045;-77
2021/08/12 01:33:20;;;;;;;8.43;6.82;;;;;;;23.06;43.37;94117.06;4975095;28;20070;-77
2021/08/12 01:35:47;;;;;;;10.60;6.57;;;;;;;22.93;44.45;94126.69;4995395;28;20572;-77
2021/08/12 01:38:19;;;;;;;9.45;6.28;;;;;;;22.84;44.48;94131.69;4978353;28;20590;-76
2021/08/12 01:40:45;;;;;;;8.85;7.13;;;;;;;22.77;43.85;94126.25;4976894;28;20030;-77
2021/08/12 01:43:16;;;;;;;11.95;7.28;;;;;;;22.69;44.24;94124.66;4980052;28;20059;-77
2021/08/12 01:45:48;;;;;;;9.68;7.07;;;;;;;22.64;44.88;94130.44;4976307;28;21020;-77
2021/08/12 01:48:14;;;;;;;7.95;7.15;;;;;;;22.61;44.95;94128.50;4980387;28;20493;-77
2021/08/12 01:50:41;;;;;;;8.10;7.30;;;;;;;22.65;44.52;94134.72;4978553;28;20049;-77
2021/08/12 01:53:06;;;;;;;11.20;7.32;;;;;;;22.64;44.15;94119.59;4977684;28;20036;-76
2021/08/12 01:55:33;;;;;;;11.38;6.88;;;;;;;22.64;44.65;94130.44;4975719;28;20022;-77
2021/08/12 01:57:59;;;;;;;10.50;7.60;;;;;;;22.67;43.59;94132.41;4977104;28;20137;-77
2021/08/12 02:00:28;;;;;;;8.63;7.38;;;;;;;22.74;44.26;94137.84;4979241;28;20557;-77
2021/08/12 02:02:54;;;;;;;8.63;7.70;;;;;;;22.60;44.38;94116.13;4977542;28;20496;-77
2021/08/12 02:05:21;;;;;;;13.27;7.88;;;;;;;22.61;44.31;94136.66;4977826;28;20039;-77
2021/08/12 02:07:48;;;;;;;8.88;6.97;;;;;;;22.54;44.74;94144.75;4978997;28;20027;-77
2021/08/12 02:10:15;;;;;;;9.05;7.53;;;;;;;22.19;45.89;94123.66;4979028;28;20468;-77
2021/08/12 02:12:41;;;;;;;12.55;7.97;;;;;;;22.27;45.36;94136.09;4974387;28;20038;-77
2021/08/12 02:15:08;;;;;;;12.20;7.63;;;;;;;22.20;45.65;94131.38;4967588;28;20588;-77
2021/08/12 02:17:34;;;;;;;10.35;7.80;;;;;;;22.28;45.97;94143.88;4978501;28;20744;-76
2021/08/12 02:20:04;;;;;;;9.63;7.63;;;;;;;22.18;45.98;94138.34;4979590;28;20022;-77
2021/08/12 02:22:36;;;;;;;9.10;7.93;;;;;;;22.01;45.87;94118.13;4976062;28;20123;-77
2021/08/12 02:25:07;;;;;;;11.15;8.07;;;;;;;22.17;45.75;94148.41;4979058;28;20036;-77
2021/08/12 02:27:38;;;;;;;9.35;7.93;;;;;;;22.23;45.29;94138.81;4976725;28;20048;-77
2021/08/12 02:30:04;;;;;;;10.70;8.20;;;;;;;22.04;45.86;94122.81;4974654;28;20053;-77
2021/08/12 02:32:33;;;;;;;8.40;7.55;;;;;;;22.28;45.77;94146.56;4980267;28;20039;-77
2021/08/12 02:34:59;;;;;;;10.05;7.57;;;;;;;22.22;45.93;94139.19;4974997;28;20038;-76
2021/08/12 02:37:26;;;;;;;9.82;7.88;;;;;;;22.23;46.03;94136.09;4979318;28;20096;-77
2021/08/12 02:39:53;;;;;;;8.95;7.95;;;;;;;22.11;46.47;94133.66;4990778;28;20042;-77
2021/08/12 02:42:19;;;;;;;7.90;7.00;;;;;;;22.04;46.02;94128.22;4979542;28;20034;-77
2021/08/12 02:44:45;;;;;;;12.30;8.90;;;;;;;22.08;45.84;94134.44;4975776;28;20397;-77
2021/08/12 02:47:13;;;;;;;13.80;8.95;;;;;;;22.01;46.50;94134.38;4972487;28;20096;-77
2021/08/12 02:49:43;;;;;;;10.70;8.65;;;;;;;22.05;46.73;94145.22;4977639;28;20384;-77
2021/08/12 02:52:10;;;;;;;11.73;8.32;;;;;;;21.98;46.42;94137.06;4976155;28;20072;-77
2021/08/12 02:54:37;;;;;;;9.63;8.45;;;;;;;21.91;46.80;94126.97;4974899;28;20129;-77
2021/08/12 02:57:03;;;;;;;9.45;8.00;;;;;;;22.03;46.27;94136.72;4974748;28;20399;-77
2021/08/12 02:59:29;;;;;;;10.02;7.55;;;;;;;22.03;46.34;94140.19;4978092;28;20857;-77
2021/08/12 03:01:56;;;;;;;10.02;8.13;;;;;;;22.04;46.66;94138.28;4972350;28;20129;-77
2021/08/12 03:04:22;;;;;;;14.13;8.63;;;;;;;22.09;46.48;94146.03;4977442;28;20026;-78
2021/08/12 03:06:58;;;;;;;9.38;8.15;;;;;;;22.17;46.14;94142.22;4974866;28;20536;-77
2021/08/12 03:09:26;;;;;;;10.27;8.30;;;;;;;22.04;46.08;94122.81;4977468;28;20108;-76
2021/08/12 03:11:53;;;;;;;9.65;8.70;;;;;;;22.00;46.31;94137.47;4990924;28;20046;-77
2021/08/12 03:14:19;;;;;;;9.70;8.70;;;;;;;21.86;46.80;94141.63;4968432;28;20588;-77
2021/08/12 03:16:45;;;;;;;9.68;8.32;;;;;;;21.88;46.90;94152.09;4982559;28;20058;-77
2021/08/12 03:19:10;;;;;;;10.30;8.40;;;;;;;21.57;46.76;94101.19;4977787;28;20105;-76
2021/08/12 03:21:36;;;;;;;10.65;8.30;;;;;;;21.97;46.56;94149.81;4977438;28;20504;-77
2021/08/12 03:24:04;;;;;;;10.25;8.57;;;;;;;21.93;46.54;94154.44;4973913;28;20039;-77
2021/08/12 03:26:30;;;;;;;11.55;8.70;;;;;;;21.87;46.67;94155.94;4975490;28;20560;-77
2021/08/12 03:28:56;;;;;;;9.60;8.40;;;;;;;21.80;46.57;94145.06;4975989;28;20414;-77
2021/08/12 03:31:21;;;;;;;10.73;8.55;;;;;;;21.88;46.51;94155.56;4975359;28;20018;-77
2021/08/12 03:33:46;;;;;;;12.18;8.43;;;;;;;21.88;46.66;94152.09;4977887;28;20449;-77
2021/08/12 03:36:12;;;;;;;10.07;7.80;;;;;;;21.83;46.45;94155.16;4978278;28;20070;-76
2021/08/12 03:38:37;;;;;;;8.75;7.85;;;;;;;21.84;46.18;94143.16;4975587;28;20049;-76
2021/08/12 03:41:04;;;;;;;12.63;8.60;;;;;;;21.94;46.21;94145.19;4974209;28;20060;-78
2021/08/12 03:43:30;;;;;;;9.43;7.82;;;;;;;21.99;46.20;94150.25;4976440;28;20437;-77
2021/08/12 03:45:56;;;;;;;11.57;8.10;;;;;;;21.90;46.45;94136.25;4977276;28;20043;-76
2021/08/12 03:48:21;;;;;;;18.13;9.65;;;;;;;22.04;46.46;94166.13;4990143;28;20524;-76
2021/08/12 03:50:46;;;;;;;10.18;8.07;;;;;;;21.99;46.56;94157.59;4974467;28;21447;-77
2021/08/12 03:53:13;;;;;;;10.10;8.15;;;;;;;21.94;47.17;94155.22;4975622;28;20038;-76
2021/08/12 03:55:39;;;;;;;13.93;8.38;;;;;;;21.89;46.95;94137.41;4975771;28;20037;-77
2021/08/12 03:58:04;;;;;;;11.85;8.38;;;;;;;21.95;46.99;94140.53;4976274;28;20046;-77
2021/08/12 04:00:30;;;;;;;9.02;8.13;;;;;;;22.11;47.01;94165.38;4989020;28;20051;-77
2021/08/12 04:02:55;;;;;;;12.68;8.00;;;;;;;22.08;47.02;94156.09;4980046;28;20515;-76
2021/08/12 04:05:20;;;;;;;10.55;8.68;;;;;;;22.08;47.40;94168.84;4973134;28;20512;-77
2021/08/12 04:07:46;;;;;;;11.48;7.40;;;;;;;22.00;47.11;94159.91;4973892;28;20029;-76
2021/08/12 04:10:11;;;;;;;8.70;7.43;;;;;;;22.18;46.08;94147.25;4979814;28;20022;-76
2021/08/12 04:12:37;;;;;;;8.70;7.75;;;;;;;22.27;46.10;94155.06;4975451;28;20604;-77
2021/08/12 04:15:02;;;;;;;11.80;7.63;;;;;;;22.38;46.80;94171.41;4977285;28;20087;-77
2021/08/12 04:17:28;;;;;;;15.93;8.30;;;;;;;22.35;46.31;94159.38;4974294;28;20764;-76
2021/08/12 04:19:53;;;;;;;12.50;8.00;;;;;;;22.52;47.18;94177.66;4972969;28;20034;-76
2021/08/12 04:22:19;;;;;;;12.13;8.65;;;;;;;22.52;46.26;94171.47;4972431;28;20026;-77
2021/08/12 04:24:44;;;;;;;11.90;7.65;;;;;;;22.74;45.99;94183.94;4975868;28;20508;-77
2021/08/12 04:27:10;;;;;;;13.10;8.15;;;;;;;22.67;46.70;94167.66;4977290;28;20869;-76
2021/08/12 04:29:36;;;;;;;12.40;8.40;;;;;;;22.84;45.38;94191.34;4991455;28;20240;-77
2021/08/12 04:32:03;;;;;;;9.85;7.80;;;;;;;22.80;46.04;94179.72;4979086;28;20643;-76
2021/08/12 04:34:28;;;;;;;15.15;8.68;;;;;;;22.91;46.31;94190.63;4981630;28;20464;-76
2021/08/12 04:36:54;;;;;;;8.38;7.40;;;;;;;22.93;46.58;94189.06;4977148;28;20049;-77
2021/08/12 04:39:19;;;;;;;11.45;7.85;;;;;;;22.76;45.69;94148.31;4977317;28;20500;-77
2021/08/12 04:41:44;;;;;;;11.07;8.30;;;;;;;23.22;44.95;94189.94;4982603;28;20518;-77
2021/08/12 04:44:10;;;;;;;11.25;8.73;;;;;;;23.19;44.89;94184.50;4975865;28;20038;-77
2021/08/12 04:46:35;;;;;;;12.10;8.73;;;;;;;23.33;44.46;94189.97;4977005;28;20287;-77
2021/08/12 04:49:02;;;;;;;13.25;9.05;;;;;;;23.39;43.61;94183.00;4977311;28;20037;-77
2021/08/12 04:51:27;;;;;;;16.10;9.30;;;;;;;23.46;44.23;94185.75;4981495;28;20108;-76
2021/08/12 04:53:53;;;;;;;14.70;9.00;;;;;;;23.49;44.14;94191.19;4970869;28;20757;-76
2021/08/12 04:56:18;;;;;;;13.30;9.32;;;;;;;23.54;44.12;94192.75;4979339;28;20671;-77
2021/08/12 04:58:43;;;;;;;13.20;9.38;;;;;;;23.62;43.64;94201.66;4980623;28;20022;-76
2021/08/12 05:01:09;;;;;;;16.85;8.93;;;;;;;23.77;43.77;94198.59;4981690;28;20046;-76
2021/08/12 05:03:34;;;;;;;12.20;9.02;;;;;;;23.93;42.80;94195.50;4974816;28;20034;-77
2021/08/12 05:06:04;;;;;;;15.45;8.05;;;;;;;23.96;42.01;94191.97;4983118;28;21001;-77
2021/08/12 05:08:30;;;;;;;13.18;8.48;;;;;;;24.09;42.16;94205.97;4980136;28;20113;-76
2021/08/12 05:10:55;;;;;;;17.33;8.45;;;;;;;24.07;42.73;94203.63;4979457;28;20560;-76
2021/08/12 05:13:21;;;;;;;15.90;8.90;;;;;;;24.12;42.72;94202.50;4977404;28;20564;-76
2021/08/12 05:15:47;;;;;;;14.07;8.95;;;;;;;24.27;41.90;94214.91;4975914;28;20049;-76
2021/08/12 05:18:12;;;;;;;15.70;8.95;;;;;;;24.33;42.06;94210.63;4977305;28;20432;-76
2021/08/12 05:20:37;;;;;;;16.95;8.90;;;;;;;24.41;41.76;94214.88;4975339;28;20500;-76
2021/08/12 05:23:04;;;;;;;15.88;9.25;;;;;;;24.37;41.53;94211.38;4976097;28;20046;-76
2021/08/12 05:25:29;;;;;;;15.90;10.52;;;;;;;24.30;41.45;94200.53;4979378;28;20077;-76
2021/08/12 05:27:55;;;;;;;13.85;8.95;;;;;;;24.35;41.68;94213.72;4978330;28;20440;-76
2021/08/12 05:30:20;;;;;;;9.30;8.23;;;;;;;24.50;41.38;94220.69;4979265;28;20141;-76
2021/08/12 05:32:47;;;;;;;15.30;8.75;;;;;;;24.49;41.67;94216.44;4978505;28;20445;-76
2021/08/12 05:35:12;;;;;;;18.80;9.38;;;;;;;24.64;41.03;94217.16;4976246;28;20061;-76
2021/08/12 05:37:38;;;;;;;18.50;9.65;;;;;;;24.76;41.08;94219.47;4979325;28;20137;-76
2021/08/12 05:40:04;;;;;;;14.43;9.27;;;;;;;24.72;41.07;94219.50;4982812;28;20092;-76
2021/08/12 05:42:29;;;;;;;14.98;9.05;;;;;;;24.76;41.17;94231.13;4980604;28;20049;-76
2021/08/12 05:44:54;;;;;;;17.60;9.80;;;;;;;24.65;41.31;94219.47;4979162;28;20031;-77
2021/08/12 05:47:20;;;;;;;16.65;9.30;;;;;;;24.69;41.26;94206.63;4976206;28;20474;-77
2021/08/12 05:49:45;;;;;;;14.35;9.07;;;;;;;24.91;40.75;94225.66;4974110;28;20033;-77
2021/08/12 05:52:11;;;;;;;10.68;8.60;;;;;;;24.97;40.57;94218.63;4979090;28;20023;-76
2021/08/12 05:54:36;;;;;;;13.38;8.90;;;;;;;25.11;40.95;94230.25;4980407;28;20468;-77
2021/08/12 05:57:01;;;;;;;13.90;9.00;;;;;;;25.02;40.64;94204.63;4971787;28;20034;-76
2021/08/12 05:59:27;;;;;;;14.52;9.02;;;;;;;25.19;39.97;94225.53;4977638;28;20038;-76
2021/08/12 06:01:52;;;;;;;16.67;8.88;;;;;;;25.12;40.30;94236.47;4976864;28;20030;-76
2021/08/12 06:04:18;;;;;;;14.98;8.57;;;;;;;25.22;40.20;94230.19;4975580;28;20056;-77
2021/08/12 06:06:43;;;;;;;14.77;8.80;;;;;;;25.26;39.84;94209.16;4977859;28;20035;-76
2021/08/12 06:09:09;;;;;;;14.50;8.30;;;;;;;25.43;39.74;94213.75;4975107;28;20381;-76
2021/08/12 06:11:34;;;;;;;13.00;9.50;;;;;;;25.48;39.97;94224.22;4979392;28;20053;-77
2021/08/12 06:14:00;;;;;;;14.68;9.90;;;;;;;25.35;40.13;94220.44;4976446;28;20400;-76
2021/08/12 06:16:25;;;;;;;16.23;9.82;;;;;;;25.23;40.34;94231.72;4978624;28;20074;-77
2021/08/12 06:18:50;;;;;;;14.60;8.50;;;;;;;25.27;40.65;94237.94;4975824;28;20042;-76
2021/08/12 06:21:16;;;;;;;12.90;8.90;;;;;;;25.33;39.84;94230.94;4972601;28;20042;-76
2021/08/12 06:23:42;;;;;;;15.20;10.07;;;;;;;25.37;40.90;94225.50;4977617;28;20095;-77
2021/08/12 06:26:09;;;;;;;14.57;9.98;;;;;;;25.53;40.21;94232.00;4975952;28;20560;-76
2021/08/12 06:28:35;;;;;;;14.95;9.27;;;;;;;25.47;40.09;94221.94;4977706;28;20058;-77
2021/08/12 06:31:00;;;;;;;12.70;9.18;;;;;;;25.35;40.96;94212.25;4977378;28;20157;-77
2021/08/12 06:33:26;;;;;;;9.80;8.00;;;;;;;25.48;40.86;94240.56;4974770;28;20042;-77
2021/08/12 06:35:52;;;;;;;13.63;8.48;;;;;;;25.48;41.33;94232.41;4975019;28;20057;-77
2021/08/12 06:38:17;;;;;;;15.27;8.82;;;;;;;25.57;41.40;94223.78;4977023;28;20039;-77
2021/08/12 06:40:43;;;;;;;15.35;8.73;;;;;;;25.75;41.05;94234.59;4977814;28;20072;-76
2021/08/12 06:43:08;;;;;;;12.25;8.27;;;;;;;25.94;40.36;94239.53;4977359;28;20038;-77
2021/08/12 06:45:34;;;;;;;12.32;7.90;;;;;;;26.00;40.01;94229.75;4977702;28;20035;-77
2021/08/12 06:48:04;;;;;;;8.60;7.68;;;;;;;25.92;40.45;94229.03;4976966;28;20050;-77
2021/08/12 06:50:29;;;;;;;14.43;7.40;;;;;;;26.07;41.15;94238.66;4975629;28;20042;-77
2021/08/12 06:52:55;;;;;;;8.32;7.45;;;;;;;26.18;39.60;94235.84;4978048;28;20030;-77
2021/08/12 06:55:21;;;;;;;9.88;7.60;;;;;;;26.05;39.70;94238.28;4971839;28;20204;-77
2021/08/12 06:57:47;;;;;;;8.05;7.13;;;;;;;26.18;39.77;94241.28;4973999;28;20377;-77
2021/08/12 07:00:13;;;;;;;16.50;8.27;;;;;;;26.11;39.41;94246.78;4974127;28;20050;-77
2021/08/12 07:02:39;;;;;;;10.68;6.72;;;;;;;25.99;40.11;94245.34;4973980;28;20061;-77
2021/08/12 07:05:06;;;;;;;12.40;7.82;;;;;;;26.15;40.76;94249.50;4972381;28;20098;-77
2021/08/12 07:07:31;;;;;;;15.40;7.80;;;;;;;26.24;40.29;94233.47;4977802;28;20030;-77
2021/08/12 07:09:56;;;;;;;12.30;8.18;;;;;;;26.33;40.00;94242.72;4973745;28;20049;-77
2021/08/12 07:12:23;;;;;;;9.20;7.38;;;;;;;26.31;39.65;94241.56;4968578;28;20035;-76
2021/08/12 07:14:48;;;;;;;8.70;7.90;;;;;;;26.28;39.97;94256.78;4974290;28;20094;-77
2021/08/12 07:17:14;;;;;;;10.93;8.30;;;;;;;26.34;41.65;94249.72;4972598;28;20047;-77
2021/08/12 07:19:40;;;;;;;17.92;8.57;;;;;;;26.32;39.65;94248.56;4973805;28;20065;-76
2021/08/12 07:22:06;;;;;;;11.02;8.40;;;;;;;26.37;39.96;94251.66;4972017;28;20069;-77
2021/08/12 07:24:31;;;;;;;9.18;7.97;;;;;;;26.33;40.04;94231.81;4974061;28;20037;-77
2021/08/12 07:26:57;;;;;;;9.60;8.30;;;;;;;26.68;40.10;94257.22;4974738;28;20571;-77
2021/08/12 07:29:23;;;;;;;8.90;7.07;;;;;;;26.70;38.85;94246.66;4972448;28;20097;-77
2021/08/12 07:31:49;;;;;;;8.93;7.82;;;;;;;26.71;39.12;94242.78;4972606;28;20042;-78
2021/08/12 07:34:16;;;;;;;8.93;8.02;;;;;;;26.86;39.20;94257.81;4974073;28;20037;-78
2021/08/12 07:36:41;;;;;;;10.05;7.78;;;;;;;26.86;39.33;94242.22;4979259;28;20030;-77
2021/08/12 07:39:07;;;;;;;9.43;7.63;;;;;;;27.05;38.02;94253.72;4965230;28;20035;-77
2021/08/12 07:41:34;;;;;;;8.85;7.50;;;;;;;26.96;38.26;94254.19;4974184;28;20046;-76
2021/08/12 07:43:59;;;;;;;8.82;7.57;;;;;;;26.79;39.16;94247.75;4974181;28;20030;-77
2021/08/12 07:46:24;;;;;;;10.50;8.07;;;;;;;26.82;38.34;94243.44;4978040;28;20578;-76
2021/08/12 07:48:50;;;;;;;8.13;7.32;;;;;;;26.72;38.65;94250.56;4972183;28;20039;-77
2021/08/12 07:51:15;;;;;;;12.27;8.27;;;;;;;26.73;38.70;94248.59;4976065;28;20515;-77
2021/08/12 07:53:41;;;;;;;9.45;8.43;;;;;;;26.88;38.82;94244.56;4973578;28;20524;-77
2021/08/12 07:56:07;;;;;;;8.40;7.50;;;;;;;27.09;38.70;94259.91;4970417;28;20042;-77
2021/08/12 07:58:32;;;;;;;10.75;8.02;;;;;;;27.15;37.89;94261.81;4971892;28;20053;-76
2021/08/12 08:00:57;;;;;;;10.02;7.88;;;;;;;27.19;38.21;94254.34;4974203;28;20053;-77
2021/08/12 08:03:23;;;;;;;13.30;7.43;;;;;;;27.27;38.10;94261.28;4977751;28;20030;-77
2021/08/12 08:05:49;;;;;;;10.60;7.53;;;;;;;27.34;38.40;94249.47;4977784;28;20459;-77
2021/08/12 08:08:14;;;;;;;8.10;7.10;;;;;;;27.40;36.91;94243.16;4977158;28;20432;-76
2021/08/12 08:10:39;;;;;;;7.95;7.10;;;;;;;27.47;37.64;94244.25;4979093;28;20551;-78
2021/08/12 08:13:05;;;;;;;8.02;7.22;;;;;;;27.68;36.06;94255.69;4979570;28;20042;-77
2021/08/12 08:15:30;;;;;;;11.68;6.93;;;;;;;27.61;36.21;94261.25;4980197;28;20445;-77
2021/08/12 08:17:56;;;;;;;16.23;7.82;;;;;;;27.70;36.03;94250.59;4976737;28;20654;-77
2021/08/12 08:20:21;;;;;;;9.65;7.18;;;;;;;27.72;36.51;94252.88;4979750;28;20104;-77
2021/08/12 08:22:48;;;;;;;9.57;6.72;;;;;;;27.84;36.29;94257.81;4980722;28;20113;-77
2021/08/12 08:25:14;;;;;;;8.73;6.70;;;;;;;27.94;35.84;94258.84;4977071;28;20499;-77
2021/08/12 08:27:40;;;;;;;8.85;6.70;;;;;;;27.87;35.34;94248.78;4981335;28;20038;-76
2021/08/12 08:30:07;;;;;;;8.88;6.78;;;;;;;27.91;35.53;94260.44;4980689;28;20038;-77
2021/08/12 08:32:32;;;;;;;8.60;7.70;;;;;;;28.00;37.42;94254.44;4977327;28;20477;-77
2021/08/12 08:34:58;;;;;;;10.32;7.25;;;;;;;28.12;36.14;94260.13;4977870;28;20983;-77
2021/08/12 08:37:23;;;;;;;12.63;7.18;;;;;;;28.15;33.74;94245.66;4979767;28;20038;-77
2021/08/12 08:39:49;;;;;;;12.35;6.22;;;;;;;28.11;33.59;94246.88;4977488;28;20429;-78
2021/08/12 08:42:16;;;;;;;8.80;6.65;;;;;;;28.15;33.39;94251.13;4980584;28;20074;-77
2021/08/12 08:44:45;;;;;;;9.13;6.32;;;;;;;28.13;33.39;94245.28;4979124;28;20541;-76
2021/08/12 08:47:14;;;;;;;7.07;6.38;;;;;;;28.04;32.73;94241.50;4980989;28;20035;-76
2021/08/12 08:49:44;;;;;;;10.07;6.28;;;;;;;27.97;33.58;94250.56;4978824;28;20026;-77
2021/08/12 08:52:11;;;;;;;20.00;7.32;;;;;;;27.87;32.99;94240.56;4978202;28;20066;-77
2021/08/12 08:54:41;;;;;;;10.63;5.85;;;;;;;27.94;33.59;94231.50;4976600;28;20253;-77
2021/08/12 08:57:08;;;;;;;7.15;5.97;;;;;;;28.11;32.84;94246.88;4977912;28;20173;-77
2021/08/12 08:59:34;;;;;;;6.72;5.88;;;;;;;28.15;32.27;94259.31;4977973;28;21067;-76
2021/08/12 09:02:05;;;;;;;6.45;5.25;;;;;;;28.04;31.87;94236.81;4978352;28;20080;-76
2021/08/12 09:04:32;;;;;;;5.32;4.82;;;;;;;28.19;32.73;94240.13;4993322;28;20022;-76
2021/08/12 09:06:57;;;;;;;8.18;5.45;;;;;;;28.17;32.16;94235.06;4979172;28;20034;-76
2021/08/12 09:09:23;;;;;;;7.65;5.63;;;;;;;28.37;32.02;94253.47;4979384;28;20070;-76
2021/08/12 09:11:49;;;;;;;5.47;4.90;;;;;;;28.24;30.45;94245.88;4977252;28;20053;-76
2021/08/12 09:14:51;;;;;;;6.63;4.63;;;;;;;28.23;31.08;94240.81;4980300;28;20464;-76
2021/08/12 09:17:19;;;;;;;7.85;5.43;;;;;;;28.19;31.75;94237.38;4902809;28;20134;-76
2021/08/12 09:20:06;;;;;;;7.43;4.95;;;;;;;28.00;31.72;94207.97;4970432;28;20066;-75
2021/08/12 09:22:55;;;;;;;9.35;5.70;;;;;;;28.16;31.47;94243.66;4976368;28;20435;-76
2021/08/12 09:25:34;;;;;;;7.65;5.63;;;;;;;28.12;31.46;94238.25;4978039;28;20046;-75
2021/08/12 09:28:26;;;;;;;5.78;4.80;;;;;;;28.30;31.32;94232.50;4977444;28;20038;-75
2021/08/12 09:30:58;;;;;;;9.05;4.95;;;;;;;28.43;30.69;94236.19;4975971;28;20042;-76
2021/08/12 09:33:24;;;;;;;12.80;5.82;;;;;;;28.44;30.90;94242.44;4978806;28;20035;-76
2021/08/12 09:35:49;;;;;;;8.43;5.32;;;;;;;28.23;30.56;94246.28;4981961;28;20061;-76
2021/08/12 09:38:15;;;;;;;10.40;5.60;;;;;;;28.29;32.00;94235.66;4975818;28;20488;-76
2021/08/12 09:40:43;;;;;;;10.63;5.15;;;;;;;28.34;30.83;94237.91;4976672;28;20063;-75
2021/08/12 09:43:10;;;;;;;9.20;4.97;;;;;;;28.13;29.27;94236.28;4982100;28;20497;-75
2021/08/12 09:45:39;;;;;;;6.03;4.75;;;;;;;28.30;30.64;94231.75;4977833;28;20048;-76
2021/08/12 09:48:16;;;;;;;5.68;4.57;;;;;;;28.56;29.62;94239.84;4978906;28;20109;-75
2021/08/12 09:50:58;;;;;;;7.63;5.55;;;;;;;28.56;29.64;94239.09;4978047;28;20174;-75
2021/08/12 09:53:24;;;;;;;6.25;4.93;;;;;;;28.53;28.97;94234.47;4978872;28;20061;-75
2021/08/12 09:55:51;;;;;;;7.10;4.95;;;;;;;28.58;30.39;94225.78;4976285;28;20120;-76
2021/08/12 09:58:18;;;;;;;6.57;4.47;;;;;;;28.66;29.28;94236.19;4978321;28;20026;-76
2021/08/12 10:00:45;;;;;;;9.95;4.65;;;;;;;28.60;29.53;94237.06;4976942;28;20225;-76
2021/08/12 10:03:31;;;;;;;5.93;5.10;;;;;;;28.39;29.35;94204.63;4976352;28;20039;-76
2021/08/12 10:06:18;;;;;;;6.10;5.35;;;;;;;28.70;28.47;94240.81;4974077;28;20250;-76
2021/08/12 10:08:43;;;;;;;6.70;4.65;;;;;;;28.70;28.76;94238.84;4983023;28;20054;-76
2021/08/12 10:11:28;;;;;;;5.35;4.85;;;;;;;28.74;28.56;94239.59;4974154;28;20133;-77
2021/08/12 10:13:57;;;;;;;12.50;4.75;;;;;;;28.71;28.29;94229.47;4977490;28;20045;-76
2021/08/12 10:16:24;;;;;;;8.13;4.85;;;;;;;28.73;28.21;94229.06;4977640;28;20427;-76
2021/08/12 10:18:50;;;;;;;5.97;4.63;;;;;;;28.68;27.83;94208.41;4978972;28;20084;-76
2021/08/12 10:21:17;;;;;;;5.78;4.72;;;;;;;28.87;28.67;94226.81;4976313;28;20038;-77
2021/08/12 10:23:46;;;;;;;6.07;4.90;;;;;;;28.70;28.08;94230.66;4976820;28;20030;-76
2021/08/12 10:26:13;;;;;;;5.53;4.85;;;;;;;28.48;28.45;94232.19;4975196;28;20042;-77
2021/08/12 10:28:42;;;;;;;5.13;4.53;;;;;;;28.42;28.75;94228.41;4976429;28;20409;-76
2021/08/12 10:31:08;;;;;;;9.50;5.07;;;;;;;28.53;27.92;94212.56;4976499;28;20063;-76
2021/08/12 10:33:35;;;;;;;8.90;4.38;;;;;;;28.66;27.53;94232.69;4974350;28;20423;-76
2021/08/12 10:36:02;;;;;;;5.35;4.57;;;;;;;28.77;27.04;94235.22;4976623;28;20042;-76
2021/08/12 10:38:27;;;;;;;7.28;4.60;;;;;;;28.89;27.92;94229.88;4976979;28;20073;-76
2021/08/12 10:40:54;;;;;;;4.90;4.35;;;;;;;28.96;27.67;94213.34;4973707;28;20034;-76
2021/08/12 10:43:23;;;;;;;5.03;4.13;;;;;;;29.18;27.92;94218.44;4976005;28;20121;-76
2021/08/12 10:45:56;;;;;;;8.57;5.60;;;;;;;29.28;27.09;94222.91;4977622;28;20505;-76
2021/08/12 10:48:24;;;;;;;9.10;5.50;;;;;;;29.36;26.44;94218.81;4975970;28;20404;-76
2021/08/12 10:51:07;;;;;;;6.47;5.53;;;;;;;29.44;26.42;94218.25;4974185;28;20041;-76
2021/08/12 10:53:32;;;;;;;8.02;5.28;;;;;;;29.40;26.57;94208.56;4968024;28;20153;-76
2021/08/12 10:56:11;;;;;;;6.03;5.03;;;;;;;29.51;28.21;94233.75;4967376;28;20084;-76
2021/08/12 10:58:46;;;;;;;12.88;6.05;;;;;;;28.80;30.24;94235.16;4979046;28;20038;-75
2021/08/12 11:01:14;;;;;;;7.80;5.55;;;;;;;28.60;29.63;94239.78;4970547;28;20058;-76
2021/08/12 11:03:45;;;;;;;10.98;5.70;;;;;;;28.44;28.43;94231.50;4974655;28;20528;-76
2021/08/12 11:06:11;;;;;;;8.13;5.10;;;;;;;28.38;28.83;94236.66;4974905;28;20042;-75
2021/08/12 11:08:52;;;;;;;9.70;5.07;;;;;;;28.56;28.70;94239.09;4974425;28;20038;-75
2021/08/12 11:11:21;;;;;;;13.38;5.07;;;;;;;28.58;28.68;94242.19;4976547;28;20623;-76
2021/08/12 11:13:50;;;;;;;10.18;5.57;;;;;;;28.36;28.60;94246.47;4971747;28;20030;-75
2021/08/12 11:16:17;;;;;;;9.90;5.00;;;;;;;28.45;28.76;94239.25;4971080;28;20026;-76
2021/08/12 11:18:52;;;;;;;11.25;5.32;;;;;;;28.78;31.52;94256.72;4969649;28;20034;-77
2021/08/12 11:21:29;;;;;;;9.63;5.55;;;;;;;28.80;31.51;94256.28;4990511;28;20560;-76
2021/08/12 11:24:07;;;;;;;8.60;4.88;;;;;;;28.87;29.63;94264.38;4972067;28;20101;-78
2021/08/12 11:26:41;;;;;;;15.75;5.82;;;;;;;28.94;31.54;94284.16;4973749;28;20703;-77
2021/08/12 11:29:22;;;;;;;14.98;5.22;;;;;;;28.72;32.04;94277.53;4979777;28;20058;-76
2021/08/12 11:31:47;;;;;;;9.55;5.75;;;;;;;28.84;33.90;94276.91;4975858;28;20089;-77